AST,Max TemperatureF,Mean TemperatureF,Min TemperatureF,Max Dew PointF,MeanDew PointF,Min DewpointF,Max Humidity, Mean Humidity, Min Humidity, Max Sea Level PressureIn, Mean Sea Level PressureIn, Min Sea Level PressureIn, Max VisibilityMiles, Mean VisibilityMiles, Min VisibilityMiles, Max Wind SpeedMPH, Mean Wind SpeedMPH, Max Gust SpeedMPH,PrecipitationIn, CloudCover, Events, WindDirDegrees
2012-11-1,62,58,53,59,56,52,100,95,71,29.67,29.60,29.49,15,12,2,12,8,17,0.20,6,Fog-Rain,135
2012-11-2,55,52,48,55,50,46,100,92,66,29.55,29.51,29.47,15,11,0,16,7,20,0.04,7,Fog-Rain,184
2012-11-3,55,51,47,52,48,46,100,95,80,29.53,29.50,29.46,15,11,1,13,5,18,0.00,8,Fog,343
2012-11-4,49,46,42,46,44,41,100,91,82,29.71,29.58,29.47,15,15,12,13,8,18,0.02,7,Rain,277
2012-11-5,41,37,33,41,33,28,100,85,59,29.96,29.88,29.73,15,14,10,12,8,17,0.04,7,Rain-Snow,299
2012-11-6,36,33,28,28,20,14,87,59,30,30.24,30.05,29.91,15,15,15,18,9,26,0.00,5,,278
2012-11-7,41,30,18,34,24,16,81,69,51,30.31,30.22,30.06,15,15,15,23,8,30,0.20,5,Rain,359
2012-11-8,47,42,36,46,43,34,100,97,92,30.05,29.85,29.59,15,9,2,23,18,32,0.55,8,Rain,42
2012-11-9,45,41,37,45,40,32,100,94,81,29.71,29.61,29.56,15,8,2,20,11,29,0.02,8,Rain,319
2012-11-10,38,35,32,32,23,16,81,59,34,30.29,29.99,29.71,15,15,15,23,15,33,0.00,1,,281
2012-11-11,39,33,27,27,23,21,80,64,45,30.57,30.47,30.32,15,15,15,14,9,20,0.00,5,,261
2012-11-12,55,46,37,48,43,28,88,79,65,30.53,30.45,30.36,15,15,12,16,10,22,0.00,5,,182
2012-11-13,62,52,42,55,51,43,100,86,69,30.35,30.25,30.14,15,14,6,23,15,32,0.20,4,Rain,194
2012-11-14,41,40,39,41,37,32,100,87,75,30.50,30.45,30.33,15,12,4,16,9,22,0.16,8,Rain,2
2012-11-15,43,40,38,41,36,32,100,82,67,30.48,30.37,30.24,15,13,2,23,15,29,0.04,7,Rain,21
2012-11-16,40,38,35,41,36,30,100,89,71,30.28,30.23,30.21,15,11,2,10,7,,0.02,8,Rain,339
2012-11-17,37,32,28,34,28,21,93,76,53,30.60,30.46,30.29,15,15,10,14,8,22,0.01,6,Rain-Snow,313
2012-11-18,36,31,26,28,24,19,80,71,56,30.71,30.68,30.60,15,15,15,12,6,,0.00,4,,305
2012-11-19,42,32,21,32,28,19,93,80,57,30.67,30.48,30.27,15,15,15,13,5,18,0.00,3,,233
2012-11-20,45,35,25,36,31,25,100,84,57,30.25,30.20,30.16,15,15,12,10,7,,0.00,1,,334
2012-11-21,43,34,24,38,33,25,93,87,75,30.33,30.30,30.26,15,15,12,9,6,,0.01,5,Rain,81
2012-11-22,47,37,27,39,35,28,100,84,58,30.28,30.22,30.13,15,15,15,13,7,,0.00,1,Fog,192
2012-11-23,49,44,38,41,39,36,93,83,58,30.11,29.98,29.80,15,15,15,16,12,22,0.00,2,,192
2012-11-24,51,44,38,52,46,41,100,99,90,29.79,29.45,29.16,15,4,0,13,6,,0.16,8,Fog-Rain,178
2012-11-25,43,36,28,45,28,16,100,76,44,29.44,29.23,29.12,15,12,0,24,12,37,0.02,7,Fog-Rain,238
2012-11-26,31,28,26,18,16,14,64,58,43,29.98,29.69,29.47,15,15,15,22,17,34,0.00,5,,256
2012-11-27,28,21,14,18,15,10,93,68,43,30.35,30.23,30.01,15,15,15,13,9,20,0.00,5,,280
2012-11-28,35,24,12,27,19,10,93,79,56,30.35,30.21,30.01,15,15,15,10,3,,0.00,5,Snow,5
2012-11-29,31,26,21,28,21,9,100,73,46,30.01,29.94,29.88,15,13,1,16,8,24,0.04,5,Snow,286
2012-11-30,21,16,12,16,7,1,80,62,46,30.40,30.17,29.97,15,14,6,18,13,32,0.00,5,Snow,281